createdAt,value
2023-04-22T00:00:38.395Z,60.34
2023-04-22T00:03:17.516Z,58.02
2023-04-22T00:05:45.858Z,57.42
2023-04-22T00:08:14.276Z,57.57
2023-04-22T00:10:42.280Z,57.77
2023-04-22T00:13:10.327Z,58.34
2023-04-22T00:15:38.345Z,58.66
2023-04-22T00:18:07.575Z,58.89
2023-04-22T00:20:36.590Z,59.57
2023-04-22T00:23:04.665Z,59.69
2023-04-22T00:25:33.762Z,60.02
2023-04-22T00:28:01.629Z,60.49
2023-04-22T00:30:29.588Z,60.72
2023-04-22T00:32:57.792Z,61.02
2023-04-22T00:35:25.977Z,61.56
2023-04-22T00:37:54.209Z,61.75
2023-04-22T00:40:22.380Z,62.39
2023-04-22T00:42:51.228Z,64.53
2023-04-22T00:45:21.142Z,64.53
2023-04-22T00:47:49.579Z,63.91
2023-04-22T00:50:17.742Z,63.28
2023-04-22T00:52:46.107Z,62.05
2023-04-22T00:55:14.115Z,60.96
2023-04-22T00:57:42.869Z,58.82
2023-04-22T01:00:11.793Z,58.38
2023-04-22T01:02:40.393Z,58.54
2023-04-22T01:05:12.098Z,58.92
2023-04-22T01:07:40.276Z,59.48
2023-04-22T01:10:08.996Z,60.01
2023-04-22T01:12:37.252Z,60.68
2023-04-22T01:15:06.796Z,60.75
2023-04-22T01:17:35.617Z,61.00
2023-04-22T01:20:05.612Z,61.48
2023-04-22T01:22:41.431Z,61.74
2023-04-22T01:25:11.483Z,62.81
2023-04-22T01:27:40.311Z,64.90
2023-04-22T01:30:10.052Z,65.01
2023-04-22T01:32:41.267Z,64.12
2023-04-22T01:35:11.301Z,63.56
2023-04-22T01:37:40.334Z,62.68
2023-04-22T01:40:12.496Z,62.12
2023-04-22T01:42:40.617Z,60.27
2023-04-22T01:45:09.501Z,58.34
2023-04-22T01:47:37.562Z,58.20
2023-04-22T01:50:06.345Z,58.63
2023-04-22T01:52:34.403Z,58.98
2023-04-22T01:55:03.264Z,59.61
2023-04-22T01:57:31.403Z,60.11
2023-04-22T01:59:59.598Z,60.70
2023-04-22T02:02:27.787Z,61.10
2023-04-22T02:04:56.351Z,61.52
2023-04-22T02:07:24.519Z,61.88
2023-04-22T02:09:52.675Z,63.22
2023-04-22T02:12:20.899Z,65.32
2023-04-22T02:14:49.045Z,66.03
2023-04-22T02:17:18.042Z,65.32
2023-04-22T02:19:47.430Z,64.27
2023-04-22T02:22:17.713Z,63.17
2023-04-22T02:24:45.905Z,62.59
2023-04-22T02:27:13.995Z,61.80
2023-04-22T02:29:42.691Z,59.77
2023-04-22T02:32:11.043Z,58.28
2023-04-22T02:34:39.020Z,58.48
2023-04-22T02:37:07.090Z,58.94
2023-04-22T02:39:35.405Z,59.45
2023-04-22T02:42:03.944Z,60.10
2023-04-22T02:44:31.913Z,60.64
2023-04-22T02:47:00.298Z,61.25
2023-04-22T02:49:28.574Z,61.92
2023-04-22T02:51:57.904Z,63.08
2023-04-22T02:54:25.949Z,67.51
2023-04-22T02:56:54.212Z,65.90
2023-04-22T03:07:01.973Z,60.55
2023-04-22T03:09:30.781Z,58.91
2023-04-22T03:11:58.802Z,58.84
2023-04-22T03:14:26.838Z,59.44
2023-04-22T03:16:55.933Z,60.16
2023-04-22T03:19:24.365Z,60.65
2023-04-22T03:21:52.433Z,61.22
2023-04-22T03:24:22.354Z,61.98
2023-04-22T03:26:52.374Z,63.82
2023-04-22T03:29:20.444Z,66.54
2023-04-22T03:31:49.306Z,64.86
2023-04-22T03:34:17.853Z,63.80
2023-04-22T03:36:46.612Z,62.83
2023-04-22T03:39:14.781Z,62.56
2023-04-22T03:41:43.618Z,61.81
2023-04-22T03:44:12.040Z,61.56
2023-04-22T03:46:40.108Z,61.20
2023-04-22T03:49:15.342Z,59.43
2023-04-22T03:51:44.068Z,57.81
2023-04-22T03:54:14.766Z,58.02
2023-04-22T03:56:47.965Z,58.57
2023-04-22T03:59:17.615Z,59.26
2023-04-22T04:01:47.639Z,59.92
2023-04-22T04:04:17.404Z,60.53
2023-04-22T04:06:51.834Z,61.24
2023-04-22T04:09:21.469Z,61.78
2023-04-22T04:11:49.492Z,63.39
2023-04-22T04:14:18.997Z,65.53
2023-04-22T04:16:48.827Z,65.41
2023-04-22T04:19:38.194Z,64.84
2023-04-22T04:22:07.185Z,63.86
2023-04-22T04:24:42.396Z,63.40
2023-04-22T04:27:16.421Z,63.01
2023-04-22T04:29:49.712Z,62.41
2023-04-22T04:32:24.408Z,62.10
2023-04-22T04:34:53.237Z,61.49
2023-04-22T04:37:24.284Z,61.02
2023-04-22T04:40:01.860Z,59.89
2023-04-22T04:42:40.918Z,58.18
2023-04-22T04:45:12.078Z,58.42
2023-04-22T04:47:41.212Z,59.04
2023-04-22T04:50:20.462Z,59.67
2023-04-22T04:52:52.727Z,60.47
2023-04-22T04:55:24.839Z,61.22
2023-04-22T04:57:53.106Z,62.34
2023-04-22T05:00:21.557Z,64.40
2023-04-22T05:02:50.648Z,64.55
2023-04-22T05:05:19.453Z,64.21
2023-04-22T05:07:48.020Z,63.17
2023-04-22T05:10:16.372Z,62.21
2023-04-22T05:12:47.478Z,61.37
2023-04-22T05:15:20.334Z,60.95
2023-04-22T05:17:48.599Z,59.52
2023-04-22T05:20:17.028Z,57.88
2023-04-22T05:22:46.194Z,58.23
2023-04-22T05:25:17.033Z,59.63
2023-04-22T05:27:53.282Z,60.29
2023-04-22T05:30:21.591Z,60.75
2023-04-22T05:32:49.676Z,60.84
2023-04-22T05:35:19.738Z,61.80
2023-04-22T05:37:47.746Z,63.53
2023-04-22T05:40:16.293Z,64.60
2023-04-22T05:42:44.670Z,64.10
2023-04-22T05:45:13.094Z,63.21
2023-04-22T05:47:41.565Z,62.01
2023-04-22T05:50:09.808Z,61.04
2023-04-22T05:52:48.525Z,60.19
2023-04-22T05:55:18.030Z,58.49
2023-04-22T05:57:46.410Z,56.98
2023-04-22T06:00:35.987Z,56.76
2023-04-22T06:03:27.333Z,57.41
2023-04-22T06:05:55.750Z,58.30
2023-04-22T06:08:24.161Z,58.90
2023-04-22T06:10:52.266Z,59.31
2023-04-22T06:13:21.550Z,59.77
2023-04-22T06:15:50.210Z,60.18
2023-04-22T06:18:18.499Z,60.34
2023-04-22T06:20:47.080Z,60.87
2023-04-22T06:23:15.148Z,60.89
2023-04-22T06:25:43.893Z,61.21
2023-04-22T06:28:12.127Z,62.62
2023-04-22T06:30:40.599Z,63.38
2023-04-22T06:33:10.244Z,62.66
2023-04-22T06:35:38.304Z,61.02
2023-04-22T06:38:06.470Z,58.45
2023-04-22T06:40:41.684Z,56.44
2023-04-22T06:43:30.326Z,57.28
2023-04-22T06:46:18.897Z,56.89
2023-04-22T06:48:53.437Z,57.45
2023-04-22T06:51:44.415Z,57.92
2023-04-22T06:54:13.105Z,59.38
2023-04-22T06:56:41.087Z,58.14
2023-04-22T06:59:09.156Z,58.09
2023-04-22T07:01:37.431Z,57.65
2023-04-22T07:04:05.515Z,57.55
2023-04-22T07:06:33.577Z,57.46
2023-04-22T07:09:01.937Z,57.10
2023-04-22T07:11:31.697Z,57.51
2023-04-22T07:14:04.245Z,57.88
2023-04-22T07:16:32.290Z,56.58
2023-04-22T07:19:00.800Z,55.83
2023-04-22T07:21:28.861Z,56.58
2023-04-22T07:23:56.920Z,56.29
2023-04-22T07:26:25.393Z,55.66
2023-04-22T07:28:53.361Z,55.21
2023-04-22T07:31:21.520Z,54.66
2023-04-22T07:33:49.809Z,54.98
2023-04-22T07:36:18.002Z,54.62
2023-04-22T07:38:46.393Z,55.60
2023-04-22T07:41:15.062Z,55.72
2023-04-22T07:43:44.244Z,53.98
2023-04-22T07:46:12.452Z,51.81
2023-04-22T07:48:42.836Z,53.81
2023-04-22T07:51:17.016Z,52.95
2023-04-22T07:53:48.731Z,51.46
2023-04-22T07:56:16.824Z,52.55
2023-04-22T07:58:44.813Z,53.17
2023-04-22T08:01:12.804Z,52.60
2023-04-22T08:03:41.207Z,53.80
2023-04-22T08:06:09.783Z,49.56
2023-04-22T08:08:37.871Z,49.21
2023-04-22T08:11:05.732Z,49.75
2023-04-22T08:13:33.738Z,48.55
2023-04-22T08:16:04.894Z,47.45
2023-04-22T08:18:33.034Z,47.09
2023-04-22T08:21:02.758Z,47.71
2023-04-22T08:23:30.815Z,47.41
2023-04-22T08:25:58.900Z,47.96
2023-04-22T08:28:27.246Z,46.99
2023-04-22T08:30:55.348Z,47.27
2023-04-22T08:33:24.772Z,45.75
2023-04-22T08:35:54.835Z,44.75
2023-04-22T08:38:24.371Z,45.75
2023-04-22T08:40:57.440Z,46.72
2023-04-22T08:43:27.077Z,45.12
2023-04-22T08:45:56.057Z,43.90
2023-04-22T08:48:24.204Z,44.34
2023-04-22T08:50:53.912Z,44.30
2023-04-22T08:53:24.406Z,45.47
2023-04-22T08:55:57.509Z,46.12
2023-04-22T08:58:25.761Z,44.29
2023-04-22T09:00:54.997Z,44.41
2023-04-22T09:03:24.002Z,43.66
2023-04-22T09:05:54.329Z,40.96
2023-04-22T09:08:22.495Z,43.02
2023-04-22T09:10:50.787Z,44.11
2023-04-22T09:13:21.308Z,43.23
2023-04-22T09:15:49.480Z,43.84
2023-04-22T09:18:19.319Z,44.54
2023-04-22T09:20:49.104Z,43.73
2023-04-22T09:23:17.237Z,41.26
2023-04-22T09:25:46.454Z,41.35
2023-04-22T09:28:19.058Z,42.73
2023-04-22T09:30:47.759Z,43.95
2023-04-22T09:33:17.802Z,42.64
2023-04-22T09:35:45.934Z,43.81
2023-04-22T09:38:13.900Z,41.49
